Mettet, Belgium
Current Conditions -  °F | °C
As of 6:55 AM on Wednesday 22 Oct 2014 (Local Time) from EBFS Reporting Station
Scattered Clouds Scattered Clouds  
Wind Chill: 33°   Ceiling: Unl
Heat Index: 41°   Visibility: 6mi
Dew Point: 36°   Wind: 15mph
Humidity: 81%   Direction: 280°W
Pressure: 30.09"   Gusts: NA
Location:  50.32°N, 4.66°E
Report Text: EBFS 220455Z 28013KT 9999 FEW025 SCT038 05/02 Q1019 BLU BLU
Loading
Personal Weather Stations






























Interactive Weather Map
Tropical Storm Tracking
New forecast layout! Learn more

10-Day Weather Forecast

Advertisements
Track Severe Weather on mobile